sensor_id;sensor_type;location;lat;lon;timestamp;pressure;altitude;pressure_sealevel;temperature;humidity
64758;BME280;51193;45.588;5.376;2022-09-01T00:01:31;96150.34;;;21.64;nan
64758;BME280;51193;45.588;5.376;2022-09-01T00:04:31;96149.50;;;21.64;nan
64758;BME280;51193;45.588;5.376;2022-09-01T00:07:13;96149.72;;;21.61;nan
64758;BME280;51193;45.588;5.376;2022-09-01T00:10:46;96150.81;;;21.58;nan
64758;BME280;51193;45.588;5.376;2022-09-01T00:42:25;96146.75;;;21.30;nan
64758;BME280;51193;45.588;5.376;2022-09-01T00:48:33;96153.38;;;21.24;nan
64758;BME280;51193;45.588;5.376;2022-09-01T00:59:25;96160.72;;;21.09;nan
64758;BME280;51193;45.588;5.376;2022-09-01T01:02:23;96161.28;;;21.02;nan
64758;BME280;51193;45.588;5.376;2022-09-01T01:05:09;96169.28;;;21.02;nan
64758;BME280;51193;45.588;5.376;2022-09-01T01:11:13;96169.97;;;20.93;nan
64758;BME280;51193;45.588;5.376;2022-09-01T01:17:35;96178.63;;;20.83;nan
64758;BME280;51193;45.588;5.376;2022-09-01T01:22:59;96185.13;;;20.79;nan
64758;BME280;51193;45.588;5.376;2022-09-01T01:32:14;96185.38;;;20.76;nan
64758;BME280;51193;45.588;5.376;2022-09-01T01:34:44;96181.00;;;20.75;nan
64758;BME280;51193;45.588;5.376;2022-09-01T01:37:47;96184.84;;;20.71;nan
64758;BME280;51193;45.588;5.376;2022-09-01T01:40:31;96182.66;;;20.65;nan
64758;BME280;51193;45.588;5.376;2022-09-01T01:46:53;96187.38;;;20.61;nan
64758;BME280;51193;45.588;5.376;2022-09-01T01:53:04;96179.19;;;20.52;nan
64758;BME280;51193;45.588;5.376;2022-09-01T02:05:23;58228.38;;;-145.51;100.00
64758;BME280;51193;45.588;5.376;2022-09-01T02:11:32;96186.56;;;20.35;nan
64758;BME280;51193;45.588;5.376;2022-09-01T02:29:58;96191.31;;;20.06;nan
64758;BME280;51193;45.588;5.376;2022-09-01T02:33:03;95132.16;;;13.61;nan
64758;BME280;51193;45.588;5.376;2022-09-01T02:59:07;96204.41;;;19.96;nan
64758;BME280;51193;45.588;5.376;2022-09-01T03:02:19;96207.06;;;19.96;nan
64758;BME280;51193;45.588;5.376;2022-09-01T03:14:23;96192.72;;;19.86;nan
64758;BME280;51193;45.588;5.376;2022-09-01T03:17:26;96191.03;;;19.85;nan
64758;BME280;51193;45.588;5.376;2022-09-01T03:40:54;96186.88;;;19.68;nan
64758;BME280;51193;45.588;5.376;2022-09-01T03:43:46;96177.44;;;19.64;nan
64758;BME280;51193;45.588;5.376;2022-09-01T03:46:52;96175.75;;;19.63;nan
64758;BME280;51193;45.588;5.376;2022-09-01T04:32:58;96164.06;;;19.40;nan
64758;BME280;51193;45.588;5.376;2022-09-01T04:35:27;96165.97;;;19.38;nan
64758;BME280;51193;45.588;5.376;2022-09-01T04:44:51;96169.78;;;19.34;nan
64758;BME280;51193;45.588;5.376;2022-09-01T05:51:11;96148.91;;;19.29;nan
64758;BME280;51193;45.588;5.376;2022-09-01T05:53:54;96149.56;;;19.33;nan
64758;BME280;51193;45.588;5.376;2022-09-01T05:56:29;96150.94;;;19.38;nan
64758;BME280;51193;45.588;5.376;2022-09-01T06:59:35;96183.38;;;20.06;nan
64758;BME280;51193;45.588;5.376;2022-09-01T07:07:17;96184.81;;;20.23;nan
64758;BME280;51193;45.588;5.376;2022-09-01T07:53:34;96200.50;;;21.11;nan
64758;BME280;51193;45.588;5.376;2022-09-01T08:48:38;96214.28;;;23.82;nan
64758;BME280;51193;45.588;5.376;2022-09-01T08:51:09;96212.63;;;23.91;nan
64758;BME280;51193;45.588;5.376;2022-09-01T08:53:49;96211.25;;;23.97;nan
64758;BME280;51193;45.588;5.376;2022-09-01T08:56:16;96213.00;;;24.07;nan
64758;BME280;51193;45.588;5.376;2022-09-01T08:58:42;96217.97;;;24.22;nan
64758;BME280;51193;45.588;5.376;2022-09-01T09:01:10;96218.31;;;24.38;nan
64758;BME280;51193;45.588;5.376;2022-09-01T09:06:24;96207.72;;;24.58;nan
64758;BME280;51193;45.588;5.376;2022-09-01T09:09:00;96202.09;;;24.61;nan
64758;BME280;51193;45.588;5.376;2022-09-01T09:11:51;96215.34;;;24.72;nan
64758;BME280;51193;45.588;5.376;2022-09-01T09:16:44;96213.84;;;24.99;nan
64758;BME280;51193;45.588;5.376;2022-09-01T09:19:30;96211.00;;;25.10;nan
64758;BME280;51193;45.588;5.376;2022-09-01T09:21:58;96197.53;;;25.21;nan
64758;BME280;51193;45.588;5.376;2022-09-01T09:26:56;96203.03;;;25.39;nan
64758;BME280;51193;45.588;5.376;2022-09-01T09:29:23;96203.44;;;25.44;nan
64758;BME280;51193;45.588;5.376;2022-09-01T09:31:48;96204.38;;;25.53;nan
64758;BME280;51193;45.588;5.376;2022-09-01T09:34:29;96196.91;;;25.66;nan
64758;BME280;51193;45.588;5.376;2022-09-01T09:36:59;96203.34;;;25.83;nan
64758;BME280;51193;45.588;5.376;2022-09-01T09:39:25;96215.16;;;26.00;nan
64758;BME280;51193;45.588;5.376;2022-09-01T09:42:01;96203.59;;;26.09;nan
64758;BME280;51193;45.588;5.376;2022-09-01T09:44:29;96204.97;;;26.14;nan
64758;BME280;51193;45.588;5.376;2022-09-01T09:46:55;96195.34;;;26.21;nan
64758;BME280;51193;45.588;5.376;2022-09-01T09:49:23;96202.50;;;26.30;nan
64758;BME280;51193;45.588;5.376;2022-09-01T09:51:56;96205.75;;;26.34;nan
64758;BME280;51193;45.588;5.376;2022-09-01T09:54:26;96208.06;;;26.46;nan
64758;BME280;51193;45.588;5.376;2022-09-01T09:59:34;96195.16;;;26.60;nan
64758;BME280;51193;45.588;5.376;2022-09-01T10:02:16;96191.38;;;26.62;nan
64758;BME280;51193;45.588;5.376;2022-09-01T10:04:45;96189.97;;;26.76;nan
64758;BME280;51193;45.588;5.376;2022-09-01T10:07:25;96185.84;;;26.82;nan
64758;BME280;51193;45.588;5.376;2022-09-01T10:09:52;96184.28;;;26.89;nan
64758;BME280;51193;45.588;5.376;2022-09-01T10:12:17;96178.13;;;26.97;nan
64758;BME280;51193;45.588;5.376;2022-09-01T10:14:47;96174.53;;;27.06;nan
64758;BME280;51193;45.588;5.376;2022-09-01T10:17:15;96165.72;;;27.14;nan
64758;BME280;51193;45.588;5.376;2022-09-01T10:19:58;96165.63;;;27.23;nan
64758;BME280;51193;45.588;5.376;2022-09-01T10:22:29;96157.72;;;27.22;nan
64758;BME280;51193;45.588;5.376;2022-09-01T10:24:54;96158.28;;;27.25;nan
64758;BME280;51193;45.588;5.376;2022-09-01T10:27:23;96155.28;;;27.28;nan
64758;BME280;51193;45.588;5.376;2022-09-01T10:32:25;96151.03;;;27.44;nan
64758;BME280;51193;45.588;5.376;2022-09-01T10:34:53;96157.47;;;27.51;nan
64758;BME280;51193;45.588;5.376;2022-09-01T10:37:18;96162.94;;;27.67;nan
64758;BME280;51193;45.588;5.376;2022-09-01T10:42:28;96159.47;;;27.75;nan
64758;BME280;51193;45.588;5.376;2022-09-01T10:44:54;96162.91;;;27.85;nan
64758;BME280;51193;45.588;5.376;2022-09-01T10:47:24;96165.00;;;27.92;nan
64758;BME280;51193;45.588;5.376;2022-09-01T10:55:00;96168.13;;;28.21;nan
64758;BME280;51193;45.588;5.376;2022-09-01T11:08:23;96143.25;;;28.54;nan
64758;BME280;51193;45.588;5.376;2022-09-01T11:13:58;96158.13;;;28.40;nan
64758;BME280;51193;45.588;5.376;2022-09-01T11:16:37;96162.19;;;28.44;nan
64758;BME280;51193;45.588;5.376;2022-09-01T11:21:47;96154.03;;;28.62;nan
64758;BME280;51193;45.588;5.376;2022-09-01T11:26:58;96146.50;;;28.74;nan
64758;BME280;51193;45.588;5.376;2022-09-01T11:32:07;96131.53;;;28.87;nan
64758;BME280;51193;45.588;5.376;2022-09-01T11:34:34;96134.44;;;29.02;nan
64758;BME280;51193;45.588;5.376;2022-09-01T11:37:09;96129.19;;;29.01;nan
64758;BME280;51193;45.588;5.376;2022-09-01T11:39:38;96137.63;;;29.14;nan
64758;BME280;51193;45.588;5.376;2022-09-01T11:47:01;96134.94;;;29.47;nan
64758;BME280;51193;45.588;5.376;2022-09-01T11:49:29;96133.78;;;29.49;nan
64758;BME280;51193;45.588;5.376;2022-09-01T11:51:55;96117.44;;;29.43;nan
64758;BME280;51193;45.588;5.376;2022-09-01T11:54:21;96133.94;;;29.48;nan
64758;BME280;51193;45.588;5.376;2022-09-01T11:56:47;96123.81;;;29.50;nan
64758;BME280;51193;45.588;5.376;2022-09-01T11:59:12;96120.47;;;29.48;nan
64758;BME280;51193;45.588;5.376;2022-09-01T12:01:38;96124.81;;;29.49;nan
64758;BME280;51193;45.588;5.376;2022-09-01T12:04:25;96121.44;;;29.55;nan
64758;BME280;51193;45.588;5.376;2022-09-01T12:06:55;96122.97;;;29.66;nan
64758;BME280;51193;45.588;5.376;2022-09-01T12:09:30;96119.25;;;29.67;nan
64758;BME280;51193;45.588;5.376;2022-09-01T12:11:55;96115.38;;;29.61;nan
64758;BME280;51193;45.588;5.376;2022-09-01T12:14:20;96122.97;;;29.66;nan
64758;BME280;51193;45.588;5.376;2022-09-01T12:16:57;96125.00;;;29.72;nan
64758;BME280;51193;45.588;5.376;2022-09-01T12:19:24;96121.75;;;29.85;nan
64758;BME280;51193;45.588;5.376;2022-09-01T12:22:12;96120.22;;;29.99;nan
64758;BME280;51193;45.588;5.376;2022-09-01T12:24:42;96114.91;;;30.14;nan
64758;BME280;51193;45.588;5.376;2022-09-01T12:27:08;96110.50;;;30.21;nan
64758;BME280;51193;45.588;5.376;2022-09-01T12:29:34;96114.53;;;30.25;nan
64758;BME280;51193;45.588;5.376;2022-09-01T12:32:01;96122.28;;;30.28;nan
64758;BME280;51193;45.588;5.376;2022-09-01T12:37:03;96107.28;;;30.34;nan
64758;BME280;51193;45.588;5.376;2022-09-01T12:39:48;96116.88;;;30.36;nan
64758;BME280;51193;45.588;5.376;2022-09-01T12:50:30;96104.13;;;30.53;nan
64758;BME280;51193;45.588;5.376;2022-09-01T12:52:52;96101.22;;;30.63;nan
64758;BME280;51193;45.588;5.376;2022-09-01T12:55:29;96096.09;;;30.68;nan
64758;BME280;51193;45.588;5.376;2022-09-01T12:57:57;96084.84;;;30.64;nan
64758;BME280;51193;45.588;5.376;2022-09-01T13:00:24;96095.25;;;30.67;nan
64758;BME280;51193;45.588;5.376;2022-09-01T13:02:50;96091.06;;;30.65;nan
64758;BME280;51193;45.588;5.376;2022-09-01T13:05:27;96092.75;;;30.66;nan
64758;BME280;51193;45.588;5.376;2022-09-01T13:07:57;96093.72;;;30.73;nan
64758;BME280;51193;45.588;5.376;2022-09-01T13:10:23;96091.84;;;30.74;nan
64758;BME280;51193;45.588;5.376;2022-09-01T13:12:49;96090.31;;;30.79;nan
64758;BME280;51193;45.588;5.376;2022-09-01T13:15:15;96090.59;;;30.84;nan
64758;BME280;51193;45.588;5.376;2022-09-01T13:17:40;96102.75;;;30.88;nan
64758;BME280;51193;45.588;5.376;2022-09-01T13:20:05;96099.53;;;30.93;nan
64758;BME280;51193;45.588;5.376;2022-09-01T13:22:32;96101.00;;;30.96;nan
64758;BME280;51193;45.588;5.376;2022-09-01T13:24:57;96094.81;;;30.87;nan
64758;BME280;51193;45.588;5.376;2022-09-01T13:27:24;96091.97;;;30.80;nan
64758;BME280;51193;45.588;5.376;2022-09-01T13:29:49;96095.31;;;30.82;nan
64758;BME280;51193;45.588;5.376;2022-09-01T13:32:15;96087.44;;;30.81;nan
64758;BME280;51193;45.588;5.376;2022-09-01T13:34:41;96085.56;;;30.81;nan
64758;BME280;51193;45.588;5.376;2022-09-01T13:37:06;96086.53;;;30.88;nan
64758;BME280;51193;45.588;5.376;2022-09-01T13:39:32;96083.50;;;30.92;nan
64758;BME280;51193;45.588;5.376;2022-09-01T13:41:57;96079.13;;;30.82;nan
64758;BME280;51193;45.588;5.376;2022-09-01T13:44:22;96080.06;;;30.75;nan
64758;BME280;51193;45.588;5.376;2022-09-01T13:46:47;96072.91;;;30.82;nan
64758;BME280;51193;45.588;5.376;2022-09-01T13:49:13;96073.69;;;30.91;nan
64758;BME280;51193;45.588;5.376;2022-09-01T13:51:38;96065.91;;;30.96;nan
64758;BME280;51193;45.588;5.376;2022-09-01T13:54:04;96069.25;;;30.98;nan
64758;BME280;51193;45.588;5.376;2022-09-01T13:56:29;96064.81;;;31.05;nan
64758;BME280;51193;45.588;5.376;2022-09-01T13:58:54;96068.16;;;31.07;nan
64758;BME280;51193;45.588;5.376;2022-09-01T14:01:20;96065.00;;;31.03;nan
64758;BME280;51193;45.588;5.376;2022-09-01T14:03:47;96072.63;;;31.00;nan
64758;BME280;51193;45.588;5.376;2022-09-01T14:06:12;96068.06;;;31.00;nan
64758;BME280;51193;45.588;5.376;2022-09-01T14:08:38;96068.66;;;31.11;nan
64758;BME280;51193;45.588;5.376;2022-09-01T14:11:03;96065.28;;;31.08;nan
64758;BME280;51193;45.588;5.376;2022-09-01T14:13:28;96065.25;;;30.94;nan
64758;BME280;51193;45.588;5.376;2022-09-01T14:15:55;96055.69;;;30.83;nan
64758;BME280;51193;45.588;5.376;2022-09-01T14:18:20;96054.16;;;30.80;nan
64758;BME280;51193;45.588;5.376;2022-09-01T14:20:48;96050.03;;;30.69;nan
64758;BME280;51193;45.588;5.376;2022-09-01T14:23:15;96046.19;;;30.64;nan
64758;BME280;51193;45.588;5.376;2022-09-01T14:25:42;96050.22;;;30.68;nan
64758;BME280;51193;45.588;5.376;2022-09-01T14:28:07;96044.66;;;30.69;nan
64758;BME280;51193;45.588;5.376;2022-09-01T14:30:33;96040.22;;;30.77;nan
64758;BME280;51193;45.588;5.376;2022-09-01T14:32:59;96045.13;;;30.73;nan
64758;BME280;51193;45.588;5.376;2022-09-01T14:35:24;96043.81;;;30.69;nan
64758;BME280;51193;45.588;5.376;2022-09-01T14:37:50;96040.56;;;30.51;nan
64758;BME280;51193;45.588;5.376;2022-09-01T14:40:16;96042.13;;;30.45;nan
64758;BME280;51193;45.588;5.376;2022-09-01T14:42:42;96040.09;;;30.47;nan
64758;BME280;51193;45.588;5.376;2022-09-01T14:45:08;96035.00;;;30.52;nan
64758;BME280;51193;45.588;5.376;2022-09-01T14:47:35;96035.34;;;30.49;nan
64758;BME280;51193;45.588;5.376;2022-09-01T14:50:01;96030.13;;;30.47;nan
64758;BME280;51193;45.588;5.376;2022-09-01T14:52:26;96029.94;;;30.49;nan
64758;BME280;51193;45.588;5.376;2022-09-01T14:54:52;96031.66;;;30.50;nan
64758;BME280;51193;45.588;5.376;2022-09-01T14:57:17;96025.38;;;30.49;nan
64758;BME280;51193;45.588;5.376;2022-09-01T14:59:42;96026.03;;;30.52;nan
64758;BME280;51193;45.588;5.376;2022-09-01T15:02:08;96025.38;;;30.49;nan
64758;BME280;51193;45.588;5.376;2022-09-01T15:04:34;96030.84;;;30.41;nan
64758;BME280;51193;45.588;5.376;2022-09-01T15:07:00;96027.03;;;30.27;nan
64758;BME280;51193;45.588;5.376;2022-09-01T15:09:29;96036.00;;;30.20;nan
64758;BME280;51193;45.588;5.376;2022-09-01T15:11:54;96031.81;;;30.17;nan
64758;BME280;51193;45.588;5.376;2022-09-01T15:14:20;96034.19;;;30.12;nan
64758;BME280;51193;45.588;5.376;2022-09-01T15:16:45;96029.63;;;30.13;nan
64758;BME280;51193;45.588;5.376;2022-09-01T15:19:11;96029.66;;;30.04;nan
64758;BME280;51193;45.588;5.376;2022-09-01T15:21:37;96019.25;;;30.01;nan
64758;BME280;51193;45.588;5.376;2022-09-01T15:24:03;96023.81;;;30.01;nan
64758;BME280;51193;45.588;5.376;2022-09-01T15:26:29;96024.69;;;29.93;nan
64758;BME280;51193;45.588;5.376;2022-09-01T15:28:55;96015.09;;;29.91;nan
64758;BME280;51193;45.588;5.376;2022-09-01T15:31:24;96018.63;;;29.91;nan
64758;BME280;51193;45.588;5.376;2022-09-01T15:33:53;96016.47;;;29.86;nan
64758;BME280;51193;45.588;5.376;2022-09-01T15:36:19;96012.28;;;29.76;nan
64758;BME280;51193;45.588;5.376;2022-09-01T15:38:45;96005.22;;;29.66;nan
64758;BME280;51193;45.588;5.376;2022-09-01T15:41:17;96002.41;;;29.60;nan
64758;BME280;51193;45.588;5.376;2022-09-01T15:43:43;96002.41;;;29.60;nan
64758;BME280;51193;45.588;5.376;2022-09-01T15:46:08;96008.28;;;29.55;nan
64758;BME280;51193;45.588;5.376;2022-09-01T15:48:34;96003.25;;;29.52;nan
64758;BME280;51193;45.588;5.376;2022-09-01T15:51:33;96001.56;;;29.51;nan
64758;BME280;51193;45.588;5.376;2022-09-01T15:53:52;96000.91;;;29.49;nan
64758;BME280;51193;45.588;5.376;2022-09-01T15:56:17;95999.06;;;29.49;nan
64758;BME280;51193;45.588;5.376;2022-09-01T15:58:43;95998.56;;;29.46;nan
64758;BME280;51193;45.588;5.376;2022-09-01T16:01:08;95995.22;;;29.44;nan
64758;BME280;51193;45.588;5.376;2022-09-01T16:03:34;95996.88;;;29.45;nan
64758;BME280;51193;45.588;5.376;2022-09-01T16:05:59;95994.00;;;29.46;nan
64758;BME280;51193;45.588;5.376;2022-09-01T16:08:25;95998.44;;;29.39;nan
64758;BME280;51193;45.588;5.376;2022-09-01T16:10:50;95990.56;;;29.21;nan
64758;BME280;51193;45.588;5.376;2022-09-01T16:13:16;95987.53;;;29.16;nan
64758;BME280;51193;45.588;5.376;2022-09-01T16:15:45;95987.22;;;29.11;nan
64758;BME280;51193;45.588;5.376;2022-09-01T16:18:16;95984.66;;;29.09;nan
64758;BME280;51193;45.588;5.376;2022-09-01T16:23:22;95987.22;;;29.11;nan
64758;BME280;51193;45.588;5.376;2022-09-01T16:25:49;95986.50;;;29.09;nan
64758;BME280;51193;45.588;5.376;2022-09-01T16:28:21;95981.47;;;29.06;nan
64758;BME280;51193;45.588;5.376;2022-09-01T16:30:48;95976.59;;;29.01;nan
64758;BME280;51193;45.588;5.376;2022-09-01T16:33:15;95980.47;;;28.99;nan
64758;BME280;51193;45.588;5.376;2022-09-01T16:35:49;95983.19;;;28.91;nan
64758;BME280;51193;45.588;5.376;2022-09-01T16:38:18;95984.53;;;28.86;nan
64758;BME280;51193;45.588;5.376;2022-09-01T16:40:51;95980.34;;;28.84;nan
64758;BME280;51193;45.588;5.376;2022-09-01T16:50:54;95977.13;;;28.80;nan
64758;BME280;51193;45.588;5.376;2022-09-01T16:56:04;95970.25;;;28.69;nan
64758;BME280;51193;45.588;5.376;2022-09-01T17:01:06;95978.50;;;28.52;nan
64758;BME280;51193;45.588;5.376;2022-09-01T17:03:35;95977.44;;;28.44;nan
64758;BME280;51193;45.588;5.376;2022-09-01T17:06:11;95975.75;;;28.35;nan
64758;BME280;51193;45.588;5.376;2022-09-01T17:08:49;95977.09;;;28.23;nan
64758;BME280;51193;45.588;5.376;2022-09-01T17:13:46;95966.63;;;28.03;nan
64758;BME280;51193;45.588;5.376;2022-09-01T17:16:32;95969.97;;;27.97;nan
64758;BME280;51193;45.588;5.376;2022-09-01T17:19:03;95966.28;;;27.90;nan
64758;BME280;51193;45.588;5.376;2022-09-01T17:21:30;95971.13;;;27.86;nan
64758;BME280;51193;45.588;5.376;2022-09-01T17:26:26;95964.03;;;27.77;nan
64758;BME280;51193;45.588;5.376;2022-09-01T17:28:57;95963.84;;;27.70;nan
64758;BME280;51193;45.588;5.376;2022-09-01T17:31:28;95960.63;;;27.59;nan
64758;BME280;51193;45.588;5.376;2022-09-01T17:34:00;95958.75;;;27.51;nan
64758;BME280;51193;45.588;5.376;2022-09-01T17:41:55;95956.09;;;27.25;nan
64758;BME280;51193;45.588;5.376;2022-09-01T17:44:37;95962.75;;;27.21;nan
64758;BME280;51193;45.588;5.376;2022-09-01T17:47:19;95962.88;;;27.11;nan
64758;BME280;51193;45.588;5.376;2022-09-01T17:55:23;95969.56;;;26.81;nan
64758;BME280;51193;45.588;5.376;2022-09-01T17:58:00;95965.81;;;26.74;nan
64758;BME280;51193;45.588;5.376;2022-09-01T18:08:40;95970.34;;;26.73;nan
64758;BME280;51193;45.588;5.376;2022-09-01T18:16:11;95972.81;;;26.48;nan
64758;BME280;51193;45.588;5.376;2022-09-01T18:18:38;95962.72;;;26.42;nan
64758;BME280;51193;45.588;5.376;2022-09-01T18:21:07;95961.34;;;26.38;nan
64758;BME280;51193;45.588;5.376;2022-09-01T18:23:35;95976.59;;;26.38;nan
64758;BME280;51193;45.588;5.376;2022-09-01T18:26:07;95964.78;;;26.30;nan
64758;BME280;51193;45.588;5.376;2022-09-01T18:28:34;95968.84;;;26.17;nan
64758;BME280;51193;45.588;5.376;2022-09-01T18:31:00;95964.88;;;26.03;nan
64758;BME280;51193;45.588;5.376;2022-09-01T18:33:32;95969.28;;;25.94;nan
64758;BME280;51193;45.588;5.376;2022-09-01T18:41:20;95968.94;;;25.79;nan
64758;BME280;51193;45.588;5.376;2022-09-01T18:53:58;95979.91;;;25.58;nan
64758;BME280;51193;45.588;5.376;2022-09-01T18:56:31;95985.41;;;25.57;nan
64758;BME280;51193;45.588;5.376;2022-09-01T19:01:32;95988.53;;;25.52;nan
64758;BME280;51193;45.588;5.376;2022-09-01T19:06:29;95996.16;;;25.47;nan
64758;BME280;51193;45.588;5.376;2022-09-01T19:21:20;96004.84;;;25.31;nan
64758;BME280;51193;45.588;5.376;2022-09-01T19:23:55;96016.38;;;25.32;nan
64758;BME280;51193;45.588;5.376;2022-09-01T19:26:26;96011.31;;;25.28;nan
64758;BME280;51193;45.588;5.376;2022-09-01T19:29:06;96006.28;;;25.25;nan
64758;BME280;51193;45.588;5.376;2022-09-01T19:31:45;96009.22;;;25.22;nan
64758;BME280;51193;45.588;5.376;2022-09-01T19:39:06;96013.44;;;25.15;nan
64758;BME280;51193;45.588;5.376;2022-09-01T19:41:34;96015.44;;;25.13;nan
64758;BME280;51193;45.588;5.376;2022-09-01T19:44:05;96014.72;;;25.11;nan
64758;BME280;51193;45.588;5.376;2022-09-01T19:46:40;96014.88;;;25.09;nan
64758;BME280;51193;45.588;5.376;2022-09-01T19:49:22;96014.31;;;25.06;nan
64758;BME280;51193;45.588;5.376;2022-09-01T19:57:21;96003.22;;;24.91;nan
64758;BME280;51193;45.588;5.376;2022-09-01T20:00:05;96004.81;;;24.84;nan
64758;BME280;51193;45.588;5.376;2022-09-01T20:02:37;96003.94;;;24.83;nan
64758;BME280;51193;45.588;5.376;2022-09-01T20:05:12;96015.91;;;24.79;nan
64758;BME280;51193;45.588;5.376;2022-09-01T20:07:45;96008.06;;;24.68;nan
64758;BME280;51193;45.588;5.376;2022-09-01T20:13:03;96013.41;;;24.68;nan
64758;BME280;51193;45.588;5.376;2022-09-01T20:15:37;96019.91;;;24.65;nan
64758;BME280;51193;45.588;5.376;2022-09-01T20:18:04;96018.31;;;24.63;nan
64758;BME280;51193;45.588;5.376;2022-09-01T20:20:33;96014.25;;;24.59;nan
64758;BME280;51193;45.588;5.376;2022-09-01T20:23:06;96013.56;;;24.57;nan
64758;BME280;51193;45.588;5.376;2022-09-01T20:25:43;96010.47;;;24.52;nan
64758;BME280;51193;45.588;5.376;2022-09-01T20:31:01;96022.66;;;24.44;nan
64758;BME280;51193;45.588;5.376;2022-09-01T20:36:07;96024.94;;;24.39;nan
64758;BME280;51193;45.588;5.376;2022-09-01T20:41:57;96022.00;;;24.33;nan
64758;BME280;51193;45.588;5.376;2022-09-01T20:47:08;96020.72;;;24.27;nan
64758;BME280;51193;45.588;5.376;2022-09-01T20:49:36;96033.38;;;24.25;nan
64758;BME280;51193;45.588;5.376;2022-09-01T20:55:07;96022.41;;;24.18;nan
64758;BME280;51193;45.588;5.376;2022-09-01T21:00:28;96022.78;;;24.14;nan
64758;BME280;51193;45.588;5.376;2022-09-01T21:03:15;96030.09;;;24.12;nan
64758;BME280;51193;45.588;5.376;2022-09-01T21:05:45;96033.06;;;24.08;nan
64758;BME280;51193;45.588;5.376;2022-09-01T21:08:26;96032.34;;;24.06;nan
64758;BME280;51193;45.588;5.376;2022-09-01T21:10:58;96028.97;;;24.04;nan
64758;BME280;51193;45.588;5.376;2022-09-01T21:16:06;96034.16;;;23.96;nan
64758;BME280;51193;45.588;5.376;2022-09-01T21:18:58;96036.13;;;23.94;nan
64758;BME280;51193;45.588;5.376;2022-09-01T21:24:27;96035.84;;;23.87;nan
64758;BME280;51193;45.588;5.376;2022-09-01T21:26:54;96041.72;;;23.81;nan
64758;BME280;51193;45.588;5.376;2022-09-01T21:32:11;96037.03;;;23.74;nan
64758;BME280;51193;45.588;5.376;2022-09-01T21:34:38;96034.63;;;23.70;nan
64758;BME280;51193;45.588;5.376;2022-09-01T21:37:05;96026.91;;;23.67;nan
64758;BME280;51193;45.588;5.376;2022-09-01T21:39:30;96036.88;;;23.65;nan
64758;BME280;51193;45.588;5.376;2022-09-01T21:41:58;96035.16;;;23.64;nan
64758;BME280;51193;45.588;5.376;2022-09-01T21:44:25;96034.63;;;23.61;nan
64758;BME280;51193;45.588;5.376;2022-09-01T21:46:54;96034.03;;;23.57;nan
64758;BME280;51193;45.588;5.376;2022-09-01T21:49:20;96027.28;;;23.53;nan
64758;BME280;51193;45.588;5.376;2022-09-01T21:51:47;96037.38;;;23.49;nan
64758;BME280;51193;45.588;5.376;2022-09-01T21:54:21;96035.94;;;23.45;nan
64758;BME280;51193;45.588;5.376;2022-09-01T21:57:22;96040.69;;;23.42;nan
64758;BME280;51193;45.588;5.376;2022-09-01T21:59:48;96038.03;;;23.42;nan
64758;BME280;51193;45.588;5.376;2022-09-01T22:02:17;96033.94;;;23.38;nan
64758;BME280;51193;45.588;5.376;2022-09-01T22:05:13;96023.97;;;23.30;nan
64758;BME280;51193;45.588;5.376;2022-09-01T22:08:17;96033.75;;;23.29;nan
64758;BME280;51193;45.588;5.376;2022-09-01T22:10:57;96033.91;;;23.28;nan
64758;BME280;51193;45.588;5.376;2022-09-01T22:16:29;96033.75;;;23.20;nan
64758;BME280;51193;45.588;5.376;2022-09-01T22:18:58;96042.69;;;23.19;nan
64758;BME280;51193;45.588;5.376;2022-09-01T22:22:03;96038.59;;;23.15;nan
64758;BME280;51193;45.588;5.376;2022-09-01T22:28:12;96033.22;;;23.05;nan
64758;BME280;51193;45.588;5.376;2022-09-01T22:33:55;96039.03;;;22.99;nan
64758;BME280;51193;45.588;5.376;2022-09-01T22:39:55;96035.88;;;22.84;nan
64758;BME280;51193;45.588;5.376;2022-09-01T22:42:28;96037.09;;;22.80;nan
64758;BME280;51193;45.588;5.376;2022-09-01T22:45:34;96043.69;;;22.76;nan
64758;BME280;51193;45.588;5.376;2022-09-01T22:48:43;96032.31;;;22.74;nan
64758;BME280;51193;45.588;5.376;2022-09-01T23:01:57;96028.00;;;22.61;nan
64758;BME280;51193;45.588;5.376;2022-09-01T23:08:02;96023.91;;;22.57;nan
64758;BME280;51193;45.588;5.376;2022-09-01T23:35:46;96009.47;;;22.39;nan
64758;BME280;51193;45.588;5.376;2022-09-01T23:38:38;96013.25;;;22.36;nan
64758;BME280;51193;45.588;5.376;2022-09-01T23:41:28;96004.41;;;22.36;nan
64758;BME280;51193;45.588;5.376;2022-09-01T23:44:23;96002.69;;;22.35;nan
64758;BME280;51193;45.588;5.376;2022-09-01T23:47:09;96002.25;;;22.29;nan
64758;BME280;51193;45.588;5.376;2022-09-01T23:50:06;95998.00;;;22.27;nan
64758;BME280;51193;45.588;5.376;2022-09-01T23:53:03;95997.28;;;22.25;nan
64758;BME280;51193;45.588;5.376;2022-09-01T23:55:57;95999.19;;;22.23;nan
64758;BME280;51193;45.588;5.376;2022-09-01T23:58:40;95999.47;;;22.20;nan
